sensor_id;sensor_type;location;lat;lon;timestamp;temperature;humidity
18260;DHT22;9256;52.236;5.712;2024-03-02T00:01:35;8.30;99.90
18260;DHT22;9256;52.236;5.712;2024-03-02T00:04:03;8.30;99.90
18260;DHT22;9256;52.236;5.712;2024-03-02T00:06:33;8.30;99.90
18260;DHT22;9256;52.236;5.712;2024-03-02T00:09:00;8.30;99.90
18260;DHT22;9256;52.236;5.712;2024-03-02T00:11:27;8.40;99.90
18260;DHT22;9256;52.236;5.712;2024-03-02T00:13:54;8.40;99.90
18260;DHT22;9256;52.236;5.712;2024-03-02T00:16:21;8.40;99.90
18260;DHT22;9256;52.236;5.712;2024-03-02T00:18:49;8.40;99.90
18260;DHT22;9256;52.236;5.712;2024-03-02T00:21:16;8.40;99.90
18260;DHT22;9256;52.236;5.712;2024-03-02T00:23:48;8.40;99.90
18260;DHT22;9256;52.236;5.712;2024-03-02T00:26:17;8.40;99.90
18260;DHT22;9256;52.236;5.712;2024-03-02T00:28:44;8.50;99.90
18260;DHT22;9256;52.236;5.712;2024-03-02T00:31:12;8.50;99.90
18260;DHT22;9256;52.236;5.712;2024-03-02T00:33:42;8.50;99.90
18260;DHT22;9256;52.236;5.712;2024-03-02T00:36:09;8.50;99.90
18260;DHT22;9256;52.236;5.712;2024-03-02T00:38:44;8.50;99.90
18260;DHT22;9256;52.236;5.712;2024-03-02T00:41:16;8.50;99.90
18260;DHT22;9256;52.236;5.712;2024-03-02T00:43:47;8.60;99.90
18260;DHT22;9256;52.236;5.712;2024-03-02T00:46:18;8.60;99.90
18260;DHT22;9256;52.236;5.712;2024-03-02T00:48:51;8.60;99.90
18260;DHT22;9256;52.236;5.712;2024-03-02T00:51:20;8.60;99.90
18260;DHT22;9256;52.236;5.712;2024-03-02T00:53:47;8.60;99.90
18260;DHT22;9256;52.236;5.712;2024-03-02T00:56:16;8.60;99.90
18260;DHT22;9256;52.236;5.712;2024-03-02T00:58:42;8.60;99.90
18260;DHT22;9256;52.236;5.712;2024-03-02T01:01:09;8.60;99.90
18260;DHT22;9256;52.236;5.712;2024-03-02T01:03:36;8.70;99.90
18260;DHT22;9256;52.236;5.712;2024-03-02T01:06:04;8.70;99.90
18260;DHT22;9256;52.236;5.712;2024-03-02T01:08:33;8.80;99.90
18260;DHT22;9256;52.236;5.712;2024-03-02T01:11:00;8.70;99.90
18260;DHT22;9256;52.236;5.712;2024-03-02T01:13:28;8.70;99.90
18260;DHT22;9256;52.236;5.712;2024-03-02T01:15:55;8.80;99.90
18260;DHT22;9256;52.236;5.712;2024-03-02T01:18:22;8.80;99.90
18260;DHT22;9256;52.236;5.712;2024-03-02T01:20:49;8.70;99.90
18260;DHT22;9256;52.236;5.712;2024-03-02T01:23:18;8.70;99.90
18260;DHT22;9256;52.236;5.712;2024-03-02T01:25:46;8.70;99.90
18260;DHT22;9256;52.236;5.712;2024-03-02T01:28:13;8.60;99.90
18260;DHT22;9256;52.236;5.712;2024-03-02T01:30:42;8.60;99.90
18260;DHT22;9256;52.236;5.712;2024-03-02T01:33:09;8.60;99.90
18260;DHT22;9256;52.236;5.712;2024-03-02T01:35:36;8.50;99.90
18260;DHT22;9256;52.236;5.712;2024-03-02T01:38:04;8.50;99.90
18260;DHT22;9256;52.236;5.712;2024-03-02T01:40:33;8.30;99.90
18260;DHT22;9256;52.236;5.712;2024-03-02T01:43:00;8.40;99.90
18260;DHT22;9256;52.236;5.712;2024-03-02T01:45:28;8.30;99.90
18260;DHT22;9256;52.236;5.712;2024-03-02T01:47:56;8.30;99.90
18260;DHT22;9256;52.236;5.712;2024-03-02T01:50:27;8.20;99.90
18260;DHT22;9256;52.236;5.712;2024-03-02T01:52:55;8.20;99.90
18260;DHT22;9256;52.236;5.712;2024-03-02T01:55:22;8.10;99.90
18260;DHT22;9256;52.236;5.712;2024-03-02T01:57:49;8.10;99.90
18260;DHT22;9256;52.236;5.712;2024-03-02T02:00:18;8.00;99.90
18260;DHT22;9256;52.236;5.712;2024-03-02T02:02:46;8.00;99.90
18260;DHT22;9256;52.236;5.712;2024-03-02T02:05:15;7.90;99.90
18260;DHT22;9256;52.236;5.712;2024-03-02T02:07:42;8.00;99.90
18260;DHT22;9256;52.236;5.712;2024-03-02T02:10:09;7.90;99.90
18260;DHT22;9256;52.236;5.712;2024-03-02T02:12:37;7.90;99.90
18260;DHT22;9256;52.236;5.712;2024-03-02T02:15:07;7.90;99.90
18260;DHT22;9256;52.236;5.712;2024-03-02T02:17:47;7.90;99.90
18260;DHT22;9256;52.236;5.712;2024-03-02T02:20:16;7.90;99.90
18260;DHT22;9256;52.236;5.712;2024-03-02T02:22:55;7.90;99.90
18260;DHT22;9256;52.236;5.712;2024-03-02T02:25:22;7.90;99.90
18260;DHT22;9256;52.236;5.712;2024-03-02T02:27:49;7.80;99.90
18260;DHT22;9256;52.236;5.712;2024-03-02T02:30:19;7.80;99.90
18260;DHT22;9256;52.236;5.712;2024-03-02T02:32:46;7.80;99.90
18260;DHT22;9256;52.236;5.712;2024-03-02T02:35:13;7.80;99.90
18260;DHT22;9256;52.236;5.712;2024-03-02T02:37:39;7.80;99.90
18260;DHT22;9256;52.236;5.712;2024-03-02T02:40:09;7.70;99.90
18260;DHT22;9256;52.236;5.712;2024-03-02T02:42:36;7.70;99.90
18260;DHT22;9256;52.236;5.712;2024-03-02T02:45:03;7.70;99.90
18260;DHT22;9256;52.236;5.712;2024-03-02T02:47:30;7.70;99.90
18260;DHT22;9256;52.236;5.712;2024-03-02T02:50:00;7.70;99.90
18260;DHT22;9256;52.236;5.712;2024-03-02T02:52:31;7.70;99.90
18260;DHT22;9256;52.236;5.712;2024-03-02T02:55:02;7.70;99.90
18260;DHT22;9256;52.236;5.712;2024-03-02T02:57:33;7.60;99.90
18260;DHT22;9256;52.236;5.712;2024-03-02T03:00:04;7.60;99.90
18260;DHT22;9256;52.236;5.712;2024-03-02T03:02:36;7.50;99.90
18260;DHT22;9256;52.236;5.712;2024-03-02T03:05:03;7.50;99.90
18260;DHT22;9256;52.236;5.712;2024-03-02T03:07:31;7.40;99.90
18260;DHT22;9256;52.236;5.712;2024-03-02T03:09:58;7.40;99.90
18260;DHT22;9256;52.236;5.712;2024-03-02T03:12:25;7.40;99.90
18260;DHT22;9256;52.236;5.712;2024-03-02T03:14:53;7.40;99.90
18260;DHT22;9256;52.236;5.712;2024-03-02T03:17:21;7.30;99.90
18260;DHT22;9256;52.236;5.712;2024-03-02T03:19:48;7.30;99.90
18260;DHT22;9256;52.236;5.712;2024-03-02T03:22:15;7.30;99.90
18260;DHT22;9256;52.236;5.712;2024-03-02T03:24:42;7.20;99.90
18260;DHT22;9256;52.236;5.712;2024-03-02T03:27:09;7.20;99.90
18260;DHT22;9256;52.236;5.712;2024-03-02T03:29:37;7.20;99.90
18260;DHT22;9256;52.236;5.712;2024-03-02T03:32:06;7.10;99.90
18260;DHT22;9256;52.236;5.712;2024-03-02T03:34:33;7.10;99.90
18260;DHT22;9256;52.236;5.712;2024-03-02T03:37:00;7.00;99.90
18260;DHT22;9256;52.236;5.712;2024-03-02T03:39:29;7.00;99.90
18260;DHT22;9256;52.236;5.712;2024-03-02T03:41:55;7.00;99.90
18260;DHT22;9256;52.236;5.712;2024-03-02T03:44:22;6.90;99.90
18260;DHT22;9256;52.236;5.712;2024-03-02T03:46:49;6.90;99.90
18260;DHT22;9256;52.236;5.712;2024-03-02T03:49:17;6.90;99.90
18260;DHT22;9256;52.236;5.712;2024-03-02T03:51:44;6.90;99.90
18260;DHT22;9256;52.236;5.712;2024-03-02T03:54:11;6.80;99.90
18260;DHT22;9256;52.236;5.712;2024-03-02T03:56:38;6.70;99.90
18260;DHT22;9256;52.236;5.712;2024-03-02T03:59:05;6.70;99.90
18260;DHT22;9256;52.236;5.712;2024-03-02T04:01:32;6.90;99.90
18260;DHT22;9256;52.236;5.712;2024-03-02T04:03:59;6.80;99.90
18260;DHT22;9256;52.236;5.712;2024-03-02T04:06:28;6.80;99.90
18260;DHT22;9256;52.236;5.712;2024-03-02T04:08:55;6.80;99.90
18260;DHT22;9256;52.236;5.712;2024-03-02T04:11:22;6.80;99.90
18260;DHT22;9256;52.236;5.712;2024-03-02T04:13:49;6.70;99.90
18260;DHT22;9256;52.236;5.712;2024-03-02T04:16:16;6.70;99.90
18260;DHT22;9256;52.236;5.712;2024-03-02T04:18:43;6.60;99.90
18260;DHT22;9256;52.236;5.712;2024-03-02T04:21:10;6.60;99.90
18260;DHT22;9256;52.236;5.712;2024-03-02T04:23:38;6.60;99.90
18260;DHT22;9256;52.236;5.712;2024-03-02T04:26:05;6.50;99.90
18260;DHT22;9256;52.236;5.712;2024-03-02T04:28:32;6.60;99.90
18260;DHT22;9256;52.236;5.712;2024-03-02T04:30:58;6.50;99.90
18260;DHT22;9256;52.236;5.712;2024-03-02T04:33:25;6.60;99.90
18260;DHT22;9256;52.236;5.712;2024-03-02T04:35:52;6.70;99.90
18260;DHT22;9256;52.236;5.712;2024-03-02T04:38:19;6.70;99.90
18260;DHT22;9256;52.236;5.712;2024-03-02T04:40:49;6.70;99.90
18260;DHT22;9256;52.236;5.712;2024-03-02T04:43:16;6.60;99.90
18260;DHT22;9256;52.236;5.712;2024-03-02T04:45:44;6.60;99.90
18260;DHT22;9256;52.236;5.712;2024-03-02T04:48:11;6.70;99.90
18260;DHT22;9256;52.236;5.712;2024-03-02T04:50:38;6.60;99.90
18260;DHT22;9256;52.236;5.712;2024-03-02T04:53:06;6.60;99.90
18260;DHT22;9256;52.236;5.712;2024-03-02T04:55:32;6.60;99.90
18260;DHT22;9256;52.236;5.712;2024-03-02T04:58:32;6.40;99.90
18260;DHT22;9256;52.236;5.712;2024-03-02T05:00:59;6.30;99.90
18260;DHT22;9256;52.236;5.712;2024-03-02T05:03:26;6.20;99.90
18260;DHT22;9256;52.236;5.712;2024-03-02T05:05:53;6.10;99.90
18260;DHT22;9256;52.236;5.712;2024-03-02T05:08:20;6.00;99.90
18260;DHT22;9256;52.236;5.712;2024-03-02T05:10:46;6.00;99.90
18260;DHT22;9256;52.236;5.712;2024-03-02T05:13:13;5.90;99.90
18260;DHT22;9256;52.236;5.712;2024-03-02T05:15:42;5.90;99.90
18260;DHT22;9256;52.236;5.712;2024-03-02T05:18:09;5.80;99.90
18260;DHT22;9256;52.236;5.712;2024-03-02T05:20:35;5.90;99.90
18260;DHT22;9256;52.236;5.712;2024-03-02T05:23:03;5.70;99.90
18260;DHT22;9256;52.236;5.712;2024-03-02T05:25:29;5.70;99.90
18260;DHT22;9256;52.236;5.712;2024-03-02T05:27:57;5.70;99.90
18260;DHT22;9256;52.236;5.712;2024-03-02T05:30:24;5.60;99.90
18260;DHT22;9256;52.236;5.712;2024-03-02T05:32:53;5.60;99.90
18260;DHT22;9256;52.236;5.712;2024-03-02T05:35:19;5.60;99.90
18260;DHT22;9256;52.236;5.712;2024-03-02T05:37:46;5.70;99.90
18260;DHT22;9256;52.236;5.712;2024-03-02T05:40:14;5.70;99.90
18260;DHT22;9256;52.236;5.712;2024-03-02T05:42:41;5.70;99.90
18260;DHT22;9256;52.236;5.712;2024-03-02T05:45:08;5.70;99.90
18260;DHT22;9256;52.236;5.712;2024-03-02T05:47:35;5.80;99.90
18260;DHT22;9256;52.236;5.712;2024-03-02T05:50:04;5.80;99.90
18260;DHT22;9256;52.236;5.712;2024-03-02T05:52:32;5.80;99.90
18260;DHT22;9256;52.236;5.712;2024-03-02T05:54:59;5.90;99.90
18260;DHT22;9256;52.236;5.712;2024-03-02T05:57:26;6.00;99.90
18260;DHT22;9256;52.236;5.712;2024-03-02T06:00:14;5.90;99.90
18260;DHT22;9256;52.236;5.712;2024-03-02T06:02:42;5.80;99.90
18260;DHT22;9256;52.236;5.712;2024-03-02T06:05:11;5.80;99.90
18260;DHT22;9256;52.236;5.712;2024-03-02T06:07:37;5.90;99.90
18260;DHT22;9256;52.236;5.712;2024-03-02T06:10:05;5.90;99.90
18260;DHT22;9256;52.236;5.712;2024-03-02T06:12:32;6.00;99.90
18260;DHT22;9256;52.236;5.712;2024-03-02T06:15:03;6.00;99.90
18260;DHT22;9256;52.236;5.712;2024-03-02T06:17:30;6.10;99.90
18260;DHT22;9256;52.236;5.712;2024-03-02T06:19:57;6.10;99.90
18260;DHT22;9256;52.236;5.712;2024-03-02T06:22:25;6.10;99.90
18260;DHT22;9256;52.236;5.712;2024-03-02T06:24:52;6.00;99.90
18260;DHT22;9256;52.236;5.712;2024-03-02T06:27:22;6.00;99.90
18260;DHT22;9256;52.236;5.712;2024-03-02T06:29:49;6.00;99.90
18260;DHT22;9256;52.236;5.712;2024-03-02T06:32:17;6.00;99.90
18260;DHT22;9256;52.236;5.712;2024-03-02T06:34:44;6.00;99.90
18260;DHT22;9256;52.236;5.712;2024-03-02T06:37:10;5.90;99.90
18260;DHT22;9256;52.236;5.712;2024-03-02T06:39:39;5.90;99.90
18260;DHT22;9256;52.236;5.712;2024-03-02T06:42:08;5.80;99.90
18260;DHT22;9256;52.236;5.712;2024-03-02T06:44:35;5.80;99.90
18260;DHT22;9256;52.236;5.712;2024-03-02T06:47:02;5.60;99.90
18260;DHT22;9256;52.236;5.712;2024-03-02T06:49:29;5.60;99.90
18260;DHT22;9256;52.236;5.712;2024-03-02T06:51:56;5.50;99.90
18260;DHT22;9256;52.236;5.712;2024-03-02T06:54:23;5.50;99.90
18260;DHT22;9256;52.236;5.712;2024-03-02T06:56:51;5.50;99.90
18260;DHT22;9256;52.236;5.712;2024-03-02T06:59:18;5.50;99.90
18260;DHT22;9256;52.236;5.712;2024-03-02T07:01:45;5.50;99.90
18260;DHT22;9256;52.236;5.712;2024-03-02T07:04:12;5.50;99.90
18260;DHT22;9256;52.236;5.712;2024-03-02T07:06:39;5.60;99.90
18260;DHT22;9256;52.236;5.712;2024-03-02T07:09:06;5.70;99.90
18260;DHT22;9256;52.236;5.712;2024-03-02T07:11:36;5.80;99.90
18260;DHT22;9256;52.236;5.712;2024-03-02T07:14:04;5.80;99.90
18260;DHT22;9256;52.236;5.712;2024-03-02T07:16:31;5.90;99.90
18260;DHT22;9256;52.236;5.712;2024-03-02T07:19:00;6.10;99.90
18260;DHT22;9256;52.236;5.712;2024-03-02T07:21:27;6.20;99.90
18260;DHT22;9256;52.236;5.712;2024-03-02T07:23:54;6.20;99.90
18260;DHT22;9256;52.236;5.712;2024-03-02T07:26:21;6.40;99.90
18260;DHT22;9256;52.236;5.712;2024-03-02T07:28:48;6.50;99.90
18260;DHT22;9256;52.236;5.712;2024-03-02T07:31:17;6.60;99.90
18260;DHT22;9256;52.236;5.712;2024-03-02T07:33:44;6.60;99.90
18260;DHT22;9256;52.236;5.712;2024-03-02T07:36:12;6.50;99.90
18260;DHT22;9256;52.236;5.712;2024-03-02T07:38:39;6.50;99.90
18260;DHT22;9256;52.236;5.712;2024-03-02T07:41:06;6.70;99.90
18260;DHT22;9256;52.236;5.712;2024-03-02T07:43:34;6.80;99.90
18260;DHT22;9256;52.236;5.712;2024-03-02T07:46:04;7.00;99.90
18260;DHT22;9256;52.236;5.712;2024-03-02T07:48:32;7.00;99.90
18260;DHT22;9256;52.236;5.712;2024-03-02T07:50:59;7.00;99.90
18260;DHT22;9256;52.236;5.712;2024-03-02T07:53:27;7.00;99.90
18260;DHT22;9256;52.236;5.712;2024-03-02T07:55:54;7.10;99.90
18260;DHT22;9256;52.236;5.712;2024-03-02T07:58:27;7.10;99.90
18260;DHT22;9256;52.236;5.712;2024-03-02T08:00:54;7.30;99.90
18260;DHT22;9256;52.236;5.712;2024-03-02T08:03:21;7.40;99.90
18260;DHT22;9256;52.236;5.712;2024-03-02T08:05:49;7.50;99.90
18260;DHT22;9256;52.236;5.712;2024-03-02T08:08:16;7.50;99.90
18260;DHT22;9256;52.236;5.712;2024-03-02T08:10:43;7.60;99.90
18260;DHT22;9256;52.236;5.712;2024-03-02T08:13:12;7.70;99.90
18260;DHT22;9256;52.236;5.712;2024-03-02T08:15:39;7.80;99.90
18260;DHT22;9256;52.236;5.712;2024-03-02T08:18:07;7.90;99.90
18260;DHT22;9256;52.236;5.712;2024-03-02T08:20:34;8.10;99.90
18260;DHT22;9256;52.236;5.712;2024-03-02T08:23:02;8.10;99.90
18260;DHT22;9256;52.236;5.712;2024-03-02T08:25:29;8.20;99.90
18260;DHT22;9256;52.236;5.712;2024-03-02T08:27:56;8.20;99.90
18260;DHT22;9256;52.236;5.712;2024-03-02T08:30:23;8.20;99.90
18260;DHT22;9256;52.236;5.712;2024-03-02T08:32:50;8.30;99.90
18260;DHT22;9256;52.236;5.712;2024-03-02T08:35:18;8.40;99.90
18260;DHT22;9256;52.236;5.712;2024-03-02T08:37:48;8.30;99.90
18260;DHT22;9256;52.236;5.712;2024-03-02T08:40:16;8.40;99.90
18260;DHT22;9256;52.236;5.712;2024-03-02T08:42:43;8.40;99.90
18260;DHT22;9256;52.236;5.712;2024-03-02T08:45:14;8.40;99.90
18260;DHT22;9256;52.236;5.712;2024-03-02T08:47:41;8.40;99.90
18260;DHT22;9256;52.236;5.712;2024-03-02T08:50:09;8.40;99.90
18260;DHT22;9256;52.236;5.712;2024-03-02T08:52:37;8.50;99.90
18260;DHT22;9256;52.236;5.712;2024-03-02T08:55:05;8.50;99.90
18260;DHT22;9256;52.236;5.712;2024-03-02T08:57:34;8.50;99.90
18260;DHT22;9256;52.236;5.712;2024-03-02T09:00:02;8.50;99.90
18260;DHT22;9256;52.236;5.712;2024-03-02T09:02:31;8.50;99.90
18260;DHT22;9256;52.236;5.712;2024-03-02T09:04:58;8.40;99.90
18260;DHT22;9256;52.236;5.712;2024-03-02T09:07:25;8.40;99.90
18260;DHT22;9256;52.236;5.712;2024-03-02T09:09:52;8.40;99.90
18260;DHT22;9256;52.236;5.712;2024-03-02T09:12:19;8.50;99.90
18260;DHT22;9256;52.236;5.712;2024-03-02T09:14:47;8.50;99.90
18260;DHT22;9256;52.236;5.712;2024-03-02T09:17:14;8.40;99.90
18260;DHT22;9256;52.236;5.712;2024-03-02T09:19:41;8.60;99.90
18260;DHT22;9256;52.236;5.712;2024-03-02T09:22:08;8.60;99.90
18260;DHT22;9256;52.236;5.712;2024-03-02T09:24:35;8.60;99.90
18260;DHT22;9256;52.236;5.712;2024-03-02T09:27:02;8.60;99.90
18260;DHT22;9256;52.236;5.712;2024-03-02T09:29:29;8.70;99.90
18260;DHT22;9256;52.236;5.712;2024-03-02T09:31:57;8.70;99.90
18260;DHT22;9256;52.236;5.712;2024-03-02T09:34:24;8.90;99.90
18260;DHT22;9256;52.236;5.712;2024-03-02T09:36:51;8.90;99.90
18260;DHT22;9256;52.236;5.712;2024-03-02T09:39:18;9.10;99.90
18260;DHT22;9256;52.236;5.712;2024-03-02T09:41:45;9.20;99.90
18260;DHT22;9256;52.236;5.712;2024-03-02T09:44:13;9.20;99.90
18260;DHT22;9256;52.236;5.712;2024-03-02T09:46:42;9.40;99.90
18260;DHT22;9256;52.236;5.712;2024-03-02T09:49:10;9.40;99.90
18260;DHT22;9256;52.236;5.712;2024-03-02T09:51:37;9.30;99.90
18260;DHT22;9256;52.236;5.712;2024-03-02T09:54:05;9.30;99.90
18260;DHT22;9256;52.236;5.712;2024-03-02T09:56:33;9.40;99.90
18260;DHT22;9256;52.236;5.712;2024-03-02T09:59:01;9.40;99.90
18260;DHT22;9256;52.236;5.712;2024-03-02T10:01:28;9.50;99.90
18260;DHT22;9256;52.236;5.712;2024-03-02T10:03:56;9.70;99.90
18260;DHT22;9256;52.236;5.712;2024-03-02T10:06:28;9.90;99.90
18260;DHT22;9256;52.236;5.712;2024-03-02T10:08:55;9.90;99.90
18260;DHT22;9256;52.236;5.712;2024-03-02T10:11:29;9.80;99.90
18260;DHT22;9256;52.236;5.712;2024-03-02T10:14:06;9.80;99.90
18260;DHT22;9256;52.236;5.712;2024-03-02T10:16:37;10.00;99.90
18260;DHT22;9256;52.236;5.712;2024-03-02T10:19:18;10.10;99.90
18260;DHT22;9256;52.236;5.712;2024-03-02T10:21:48;10.10;99.90
18260;DHT22;9256;52.236;5.712;2024-03-02T10:24:18;10.30;99.90
18260;DHT22;9256;52.236;5.712;2024-03-02T10:26:45;10.20;99.90
18260;DHT22;9256;52.236;5.712;2024-03-02T10:29:13;10.10;99.90
18260;DHT22;9256;52.236;5.712;2024-03-02T10:31:41;10.10;99.90
18260;DHT22;9256;52.236;5.712;2024-03-02T10:34:09;10.40;99.90
18260;DHT22;9256;52.236;5.712;2024-03-02T10:36:36;10.60;99.90
18260;DHT22;9256;52.236;5.712;2024-03-02T10:39:05;10.50;99.90
18260;DHT22;9256;52.236;5.712;2024-03-02T10:41:34;10.50;99.90
18260;DHT22;9256;52.236;5.712;2024-03-02T10:44:03;10.50;99.90
18260;DHT22;9256;52.236;5.712;2024-03-02T10:46:34;10.70;99.90
18260;DHT22;9256;52.236;5.712;2024-03-02T10:49:02;10.80;99.90
18260;DHT22;9256;52.236;5.712;2024-03-02T10:51:31;10.80;99.90
18260;DHT22;9256;52.236;5.712;2024-03-02T10:53:59;11.00;99.90
18260;DHT22;9256;52.236;5.712;2024-03-02T10:56:30;11.20;99.90
18260;DHT22;9256;52.236;5.712;2024-03-02T10:59:02;11.30;99.90
18260;DHT22;9256;52.236;5.712;2024-03-02T11:01:32;11.40;99.90
18260;DHT22;9256;52.236;5.712;2024-03-02T11:03:59;11.60;99.90
18260;DHT22;9256;52.236;5.712;2024-03-02T11:06:29;11.60;99.90
18260;DHT22;9256;52.236;5.712;2024-03-02T11:09:00;11.60;99.90
18260;DHT22;9256;52.236;5.712;2024-03-02T11:11:37;11.60;99.90
18260;DHT22;9256;52.236;5.712;2024-03-02T11:14:09;11.70;99.90
18260;DHT22;9256;52.236;5.712;2024-03-02T11:16:38;11.80;99.90
18260;DHT22;9256;52.236;5.712;2024-03-02T11:19:08;11.80;99.90
18260;DHT22;9256;52.236;5.712;2024-03-02T11:21:37;11.80;99.90
18260;DHT22;9256;52.236;5.712;2024-03-02T11:24:30;12.00;99.90
18260;DHT22;9256;52.236;5.712;2024-03-02T11:27:01;12.10;99.90
18260;DHT22;9256;52.236;5.712;2024-03-02T11:29:43;12.10;99.90
18260;DHT22;9256;52.236;5.712;2024-03-02T11:32:18;12.10;99.90
18260;DHT22;9256;52.236;5.712;2024-03-02T11:34:47;12.00;99.90
18260;DHT22;9256;52.236;5.712;2024-03-02T11:37:16;12.00;99.90
18260;DHT22;9256;52.236;5.712;2024-03-02T11:39:44;12.00;99.90
18260;DHT22;9256;52.236;5.712;2024-03-02T11:42:14;12.10;99.90
18260;DHT22;9256;52.236;5.712;2024-03-02T11:44:43;12.20;99.90
18260;DHT22;9256;52.236;5.712;2024-03-02T11:47:11;12.40;99.90
18260;DHT22;9256;52.236;5.712;2024-03-02T11:49:41;12.70;99.90
18260;DHT22;9256;52.236;5.712;2024-03-02T11:52:10;12.80;99.90
18260;DHT22;9256;52.236;5.712;2024-03-02T11:54:42;12.70;99.90
18260;DHT22;9256;52.236;5.712;2024-03-02T11:57:14;12.70;99.90
18260;DHT22;9256;52.236;5.712;2024-03-02T11:59:41;12.80;99.90
18260;DHT22;9256;52.236;5.712;2024-03-02T12:02:14;12.80;99.90
18260;DHT22;9256;52.236;5.712;2024-03-02T12:04:42;12.90;99.90
18260;DHT22;9256;52.236;5.712;2024-03-02T12:07:12;13.00;99.90
18260;DHT22;9256;52.236;5.712;2024-03-02T12:09:39;13.20;99.90
18260;DHT22;9256;52.236;5.712;2024-03-02T12:12:07;13.30;99.90
18260;DHT22;9256;52.236;5.712;2024-03-02T12:14:36;13.50;99.90
18260;DHT22;9256;52.236;5.712;2024-03-02T12:17:04;13.60;99.90
18260;DHT22;9256;52.236;5.712;2024-03-02T12:19:33;13.90;99.90
18260;DHT22;9256;52.236;5.712;2024-03-02T12:22:00;14.10;99.90
18260;DHT22;9256;52.236;5.712;2024-03-02T12:24:28;14.10;99.90
18260;DHT22;9256;52.236;5.712;2024-03-02T12:26:56;13.60;99.90
18260;DHT22;9256;52.236;5.712;2024-03-02T12:29:23;13.30;99.90
18260;DHT22;9256;52.236;5.712;2024-03-02T12:31:53;13.10;99.90
18260;DHT22;9256;52.236;5.712;2024-03-02T12:34:21;13.00;99.90
18260;DHT22;9256;52.236;5.712;2024-03-02T12:36:48;13.20;99.90
18260;DHT22;9256;52.236;5.712;2024-03-02T12:39:19;13.70;99.90
18260;DHT22;9256;52.236;5.712;2024-03-02T12:41:46;14.30;99.90
18260;DHT22;9256;52.236;5.712;2024-03-02T12:44:13;14.30;99.90
18260;DHT22;9256;52.236;5.712;2024-03-02T12:46:40;13.90;99.90
18260;DHT22;9256;52.236;5.712;2024-03-02T12:49:10;13.90;99.90
18260;DHT22;9256;52.236;5.712;2024-03-02T12:51:38;13.60;99.90
18260;DHT22;9256;52.236;5.712;2024-03-02T12:54:06;13.30;99.90
18260;DHT22;9256;52.236;5.712;2024-03-02T12:56:33;13.10;99.90
18260;DHT22;9256;52.236;5.712;2024-03-02T12:59:00;13.30;99.90
18260;DHT22;9256;52.236;5.712;2024-03-02T13:01:27;13.90;99.90
18260;DHT22;9256;52.236;5.712;2024-03-02T13:03:54;14.70;99.90
18260;DHT22;9256;52.236;5.712;2024-03-02T13:06:24;14.70;99.90
18260;DHT22;9256;52.236;5.712;2024-03-02T13:08:53;14.60;99.90
18260;DHT22;9256;52.236;5.712;2024-03-02T13:11:21;14.10;99.90
18260;DHT22;9256;52.236;5.712;2024-03-02T13:13:49;13.80;99.90
18260;DHT22;9256;52.236;5.712;2024-03-02T13:16:16;13.90;99.90
18260;DHT22;9256;52.236;5.712;2024-03-02T13:18:45;14.10;99.90
18260;DHT22;9256;52.236;5.712;2024-03-02T13:21:12;14.20;99.90
18260;DHT22;9256;52.236;5.712;2024-03-02T13:23:40;14.80;99.90
18260;DHT22;9256;52.236;5.712;2024-03-02T13:26:07;15.20;99.90
18260;DHT22;9256;52.236;5.712;2024-03-02T13:28:36;15.50;99.90
18260;DHT22;9256;52.236;5.712;2024-03-02T13:31:04;15.40;99.90
18260;DHT22;9256;52.236;5.712;2024-03-02T13:33:31;15.10;99.90
18260;DHT22;9256;52.236;5.712;2024-03-02T13:35:58;15.40;99.90
18260;DHT22;9256;52.236;5.712;2024-03-02T13:38:26;15.50;99.90
18260;DHT22;9256;52.236;5.712;2024-03-02T13:40:54;15.10;99.90
18260;DHT22;9256;52.236;5.712;2024-03-02T13:43:21;14.50;99.90
18260;DHT22;9256;52.236;5.712;2024-03-02T13:45:49;14.60;99.90
18260;DHT22;9256;52.236;5.712;2024-03-02T13:48:17;14.40;99.90
18260;DHT22;9256;52.236;5.712;2024-03-02T13:50:45;14.40;99.90
18260;DHT22;9256;52.236;5.712;2024-03-02T13:53:12;14.80;99.90
18260;DHT22;9256;52.236;5.712;2024-03-02T13:55:39;15.30;99.90
18260;DHT22;9256;52.236;5.712;2024-03-02T13:58:08;15.80;99.90
18260;DHT22;9256;52.236;5.712;2024-03-02T14:00:36;16.00;99.90
18260;DHT22;9256;52.236;5.712;2024-03-02T14:03:04;16.10;99.90
18260;DHT22;9256;52.236;5.712;2024-03-02T14:05:32;16.70;99.90
18260;DHT22;9256;52.236;5.712;2024-03-02T14:07:59;16.70;99.90
18260;DHT22;9256;52.236;5.712;2024-03-02T14:10:27;16.50;99.90
18260;DHT22;9256;52.236;5.712;2024-03-02T14:12:54;16.10;99.90
18260;DHT22;9256;52.236;5.712;2024-03-02T14:15:23;15.50;99.90
18260;DHT22;9256;52.236;5.712;2024-03-02T14:17:54;15.80;99.90
18260;DHT22;9256;52.236;5.712;2024-03-02T14:20:20;15.80;99.90
18260;DHT22;9256;52.236;5.712;2024-03-02T14:22:49;15.90;99.90
18260;DHT22;9256;52.236;5.712;2024-03-02T14:25:16;16.00;99.90
18260;DHT22;9256;52.236;5.712;2024-03-02T14:27:44;16.40;99.90
18260;DHT22;9256;52.236;5.712;2024-03-02T14:30:13;16.90;99.90
18260;DHT22;9256;52.236;5.712;2024-03-02T14:32:41;16.90;99.90
18260;DHT22;9256;52.236;5.712;2024-03-02T14:35:08;17.00;99.90
18260;DHT22;9256;52.236;5.712;2024-03-02T14:37:37;18.50;99.90
18260;DHT22;9256;52.236;5.712;2024-03-02T14:40:05;18.30;99.90
18260;DHT22;9256;52.236;5.712;2024-03-02T14:42:35;18.00;99.90
18260;DHT22;9256;52.236;5.712;2024-03-02T14:45:02;16.50;99.90
18260;DHT22;9256;52.236;5.712;2024-03-02T14:47:31;15.60;99.90
18260;DHT22;9256;52.236;5.712;2024-03-02T14:50:00;15.40;99.90
18260;DHT22;9256;52.236;5.712;2024-03-02T14:52:29;15.90;99.90
18260;DHT22;9256;52.236;5.712;2024-03-02T14:54:56;16.90;99.90
18260;DHT22;9256;52.236;5.712;2024-03-02T14:57:22;16.60;99.90
18260;DHT22;9256;52.236;5.712;2024-03-02T14:59:49;17.20;99.90
18260;DHT22;9256;52.236;5.712;2024-03-02T15:02:16;17.20;99.90
18260;DHT22;9256;52.236;5.712;2024-03-02T15:04:43;16.40;99.90
18260;DHT22;9256;52.236;5.712;2024-03-02T15:07:12;15.40;99.90
18260;DHT22;9256;52.236;5.712;2024-03-02T15:09:39;15.80;99.90
18260;DHT22;9256;52.236;5.712;2024-03-02T15:12:07;15.40;99.90
18260;DHT22;9256;52.236;5.712;2024-03-02T15:14:38;15.40;99.90
18260;DHT22;9256;52.236;5.712;2024-03-02T15:17:12;15.70;99.90
18260;DHT22;9256;52.236;5.712;2024-03-02T15:19:41;15.50;99.90
18260;DHT22;9256;52.236;5.712;2024-03-02T15:22:08;15.80;99.90
18260;DHT22;9256;52.236;5.712;2024-03-02T15:24:35;14.90;99.90
18260;DHT22;9256;52.236;5.712;2024-03-02T15:27:02;14.90;99.90
18260;DHT22;9256;52.236;5.712;2024-03-02T15:29:31;14.90;99.90
18260;DHT22;9256;52.236;5.712;2024-03-02T15:31:58;14.70;99.90
18260;DHT22;9256;52.236;5.712;2024-03-02T15:34:25;14.50;99.90
18260;DHT22;9256;52.236;5.712;2024-03-02T15:36:52;14.00;99.90
18260;DHT22;9256;52.236;5.712;2024-03-02T15:39:19;13.60;99.90
18260;DHT22;9256;52.236;5.712;2024-03-02T15:41:47;13.50;99.90
18260;DHT22;9256;52.236;5.712;2024-03-02T15:44:14;13.40;99.90
18260;DHT22;9256;52.236;5.712;2024-03-02T15:46:41;13.30;99.90
18260;DHT22;9256;52.236;5.712;2024-03-02T15:49:08;13.50;99.90
18260;DHT22;9256;52.236;5.712;2024-03-02T15:51:35;13.40;99.90
18260;DHT22;9256;52.236;5.712;2024-03-02T15:54:06;13.30;99.90
18260;DHT22;9256;52.236;5.712;2024-03-02T15:56:33;13.20;99.90
18260;DHT22;9256;52.236;5.712;2024-03-02T15:59:02;13.00;99.90
18260;DHT22;9256;52.236;5.712;2024-03-02T16:01:31;12.90;99.90